RYR3628 LPPT-LEZL
Flight info
| Callsign | RYR3628 |
|---|---|
| Flight time | 0h 41m |
| Altitude | 29000 |
| Route | DUZOP DCT MINTA N747 OSLEP |
| Aircraft | B738/M-SDE2E3FGHIRWXY/LB1 |
Departure
| Time | 2026-04-15 13:09 |
|---|---|
| Airport | Lisbon Humberto Delgado Airport (LPPT) |
Arrival
| Time | 2026-04-15 13:50 |
|---|---|
| Airport | Seville Airport (LEZL) |
| Time | Latitude | Longitude | Altitude | Speed | Heading |
|---|---|---|---|---|---|
| 2026-04-15 12:47 | 38.76479 | -9.13613 | 347 ft | 0 kts | 168° |
| 2026-04-15 13:01 | 38.76480 | -9.13613 | 347 ft | 2 kts | 167° |
| 2026-04-15 13:01 | 38.76479 | -9.13615 | 347 ft | 4 kts | 148° |
| 2026-04-15 13:01 | 38.76497 | -9.13636 | 357 ft | 4 kts | 149° |
| 2026-04-15 13:01 | 38.76521 | -9.13647 | 352 ft | 4 kts | 181° |
| 2026-04-15 13:02 | 38.76546 | -9.13640 | 349 ft | 4 kts | 219° |
| 2026-04-15 13:02 | 38.76559 | -9.13618 | 357 ft | 1 kts | 258° |
| 2026-04-15 13:02 | 38.76560 | -9.13613 | 357 ft | 0 kts | 258° |
| 2026-04-15 13:06 | 38.76559 | -9.13618 | 357 ft | 2 kts | 258° |
| 2026-04-15 13:06 | 38.76554 | -9.13650 | 350 ft | 5 kts | 258° |
| 2026-04-15 13:06 | 38.76543 | -9.13714 | 356 ft | 9 kts | 258° |
| 2026-04-15 13:06 | 38.76528 | -9.13807 | 351 ft | 12 kts | 258° |
| 2026-04-15 13:07 | 38.76517 | -9.13902 | 346 ft | 9 kts | 284° |
| 2026-04-15 13:07 | 38.76567 | -9.13968 | 351 ft | 13 kts | 287° |
| 2026-04-15 13:07 | 38.76555 | -9.14094 | 346 ft | 16 kts | 268° |
| 2026-04-15 13:07 | 38.76598 | -9.14250 | 336 ft | 21 kts | 297° |
| 2026-04-15 13:08 | 38.76655 | -9.14368 | 334 ft | 7 kts | 341° |
| 2026-04-15 13:08 | 38.76733 | -9.14341 | 334 ft | 30 kts | 23° |
| 2026-04-15 13:08 | 38.77148 | -9.14122 | 353 ft | 97 kts | 22° |
| 2026-04-15 13:08 | 38.77957 | -9.13686 | 369 ft | 152 kts | 23° |
| 2026-04-15 13:09 | 38.78995 | -9.13086 | 760 ft | 170 kts | 20° |
| 2026-04-15 13:09 | 38.80110 | -9.12497 | 1410 ft | 177 kts | 18° |
| 2026-04-15 13:09 | 38.81237 | -9.11939 | 2276 ft | 173 kts | 18° |
| 2026-04-15 13:09 | 38.82392 | -9.11385 | 2975 ft | 181 kts | 19° |
| 2026-04-15 13:10 | 38.83561 | -9.10687 | 3690 ft | 186 kts | 24° |
| 2026-04-15 13:10 | 38.84714 | -9.09910 | 4399 ft | 194 kts | 30° |
| 2026-04-15 13:10 | 38.85892 | -9.08833 | 4617 ft | 219 kts | 33° |
| 2026-04-15 13:10 | 38.87195 | -9.07643 | 4810 ft | 241 kts | 41° |
| 2026-04-15 13:11 | 38.88142 | -9.05744 | 5008 ft | 268 kts | 71° |
| 2026-04-15 13:11 | 38.88330 | -9.03359 | 5575 ft | 277 kts | 99° |
| 2026-04-15 13:11 | 38.87669 | -9.01037 | 6324 ft | 281 kts | 119° |
| 2026-04-15 13:11 | 38.86665 | -8.98863 | 7083 ft | 283 kts | 128° |
| 2026-04-15 13:12 | 38.85169 | -8.97245 | 7699 ft | 286 kts | 158° |
| 2026-04-15 13:12 | 38.83245 | -8.96725 | 8394 ft | 284 kts | 184° |
| 2026-04-15 13:12 | 38.81319 | -8.97220 | 9140 ft | 282 kts | 202° |
| 2026-04-15 13:12 | 38.79489 | -8.98161 | 9906 ft | 285 kts | 205° |
| 2026-04-15 13:13 | 38.77651 | -8.99173 | 10600 ft | 291 kts | 206° |
| 2026-04-15 13:13 | 38.75722 | -9.00247 | 10796 ft | 315 kts | 205° |
| 2026-04-15 13:13 | 38.73637 | -9.01399 | 10964 ft | 337 kts | 205° |
| 2026-04-15 13:13 | 38.71454 | -9.02591 | 11306 ft | 351 kts | 205° |
| 2026-04-15 13:14 | 38.69184 | -9.03818 | 11919 ft | 356 kts | 205° |
| 2026-04-15 13:14 | 38.66889 | -9.05051 | 12628 ft | 358 kts | 205° |
| 2026-04-15 13:14 | 38.64570 | -9.06292 | 13331 ft | 362 kts | 205° |
| 2026-04-15 13:14 | 38.62237 | -9.07539 | 14023 ft | 366 kts | 205° |
| 2026-04-15 13:15 | 38.59906 | -9.08783 | 14662 ft | 369 kts | 205° |
| 2026-04-15 13:15 | 38.57525 | -9.10053 | 15350 ft | 372 kts | 205° |
| 2026-04-15 13:15 | 38.55129 | -9.11330 | 16053 ft | 374 kts | 205° |
| 2026-04-15 13:15 | 38.52713 | -9.12618 | 16754 ft | 378 kts | 205° |
| 2026-04-15 13:16 | 38.50271 | -9.13918 | 17393 ft | 382 kts | 205° |
| 2026-04-15 13:16 | 38.47797 | -9.15234 | 18045 ft | 386 kts | 205° |
| 2026-04-15 13:16 | 38.45290 | -9.16517 | 18677 ft | 391 kts | 199° |
| 2026-04-15 13:16 | 38.42567 | -9.16952 | 19210 ft | 400 kts | 178° |
| 2026-04-15 13:17 | 38.39870 | -9.16186 | 19807 ft | 407 kts | 160° |
| 2026-04-15 13:17 | 38.37393 | -9.14378 | 20375 ft | 414 kts | 148° |
| 2026-04-15 13:17 | 38.35009 | -9.12270 | 20881 ft | 419 kts | 147° |
| 2026-04-15 13:17 | 38.32610 | -9.10107 | 21362 ft | 424 kts | 147° |
| 2026-04-15 13:18 | 38.30191 | -9.07929 | 21855 ft | 428 kts | 147° |
| 2026-04-15 13:18 | 38.27744 | -9.05748 | 22372 ft | 430 kts | 147° |
| 2026-04-15 13:18 | 38.25271 | -9.03565 | 22885 ft | 433 kts | 148° |
| 2026-04-15 13:18 | 38.22778 | -9.01380 | 23356 ft | 437 kts | 148° |
| 2026-04-15 13:19 | 38.20288 | -8.99205 | 23812 ft | 441 kts | 148° |
| 2026-04-15 13:19 | 38.17749 | -8.96992 | 24222 ft | 444 kts | 148° |
| 2026-04-15 13:19 | 38.15195 | -8.94767 | 24660 ft | 446 kts | 148° |
| 2026-04-15 13:19 | 38.12635 | -8.92536 | 25091 ft | 447 kts | 148° |
| 2026-04-15 13:20 | 38.10061 | -8.90296 | 25514 ft | 449 kts | 149° |
| 2026-04-15 13:20 | 38.07471 | -8.88055 | 25918 ft | 451 kts | 150° |
| 2026-04-15 13:20 | 38.04726 | -8.86134 | 26310 ft | 449 kts | 159° |
| 2026-04-15 13:20 | 38.01857 | -8.84525 | 26712 ft | 450 kts | 161° |
| 2026-04-15 13:21 | 37.98964 | -8.82993 | 27097 ft | 452 kts | 161° |
| 2026-04-15 13:21 | 37.96056 | -8.81451 | 27464 ft | 454 kts | 161° |
| 2026-04-15 13:21 | 37.93140 | -8.79872 | 27835 ft | 457 kts | 160° |
| 2026-04-15 13:21 | 37.90221 | -8.78257 | 28258 ft | 457 kts | 160° |
| 2026-04-15 13:22 | 37.87322 | -8.76630 | 28826 ft | 454 kts | 160° |
| 2026-04-15 13:22 | 37.84478 | -8.75025 | 29284 ft | 454 kts | 160° |
| 2026-04-15 13:22 | 37.78668 | -8.71749 | 29271 ft | 456 kts | 160° |
| 2026-04-15 13:23 | 37.72902 | -8.68508 | 29272 ft | 453 kts | 160° |
| 2026-04-15 13:23 | 37.67360 | -8.64681 | 29270 ft | 463 kts | 140° |
| 2026-04-15 13:24 | 37.65914 | -8.62682 | 29267 ft | 469 kts | 128° |
| 2026-04-15 13:24 | 37.64258 | -8.59116 | 29296 ft | 472 kts | 120° |
| 2026-04-15 13:24 | 37.61244 | -8.51737 | 29268 ft | 474 kts | 119° |
| 2026-04-15 13:25 | 37.58226 | -8.44348 | 29257 ft | 473 kts | 120° |
| 2026-04-15 13:25 | 37.55164 | -8.37011 | 29249 ft | 472 kts | 120° |
| 2026-04-15 13:26 | 37.52084 | -8.29713 | 29249 ft | 471 kts | 120° |
| 2026-04-15 13:26 | 37.49001 | -8.22433 | 29252 ft | 471 kts | 120° |
| 2026-04-15 13:27 | 37.45921 | -8.15173 | 29209 ft | 466 kts | 120° |
| 2026-04-15 13:27 | 37.44397 | -8.11584 | 28777 ft | 460 kts | 120° |
| 2026-04-15 13:27 | 37.42903 | -8.08067 | 28289 ft | 454 kts | 120° |
| 2026-04-15 13:28 | 37.41421 | -8.04584 | 27824 ft | 448 kts | 120° |
| 2026-04-15 13:28 | 37.39974 | -8.01189 | 27319 ft | 444 kts | 120° |
| 2026-04-15 13:28 | 37.38521 | -7.97784 | 26840 ft | 440 kts | 120° |
| 2026-04-15 13:28 | 37.37077 | -7.94403 | 26350 ft | 437 kts | 120° |
| 2026-04-15 13:29 | 37.35646 | -7.91056 | 25876 ft | 433 kts | 120° |
| 2026-04-15 13:29 | 37.34223 | -7.87731 | 25403 ft | 430 kts | 120° |
| 2026-04-15 13:29 | 37.32808 | -7.84427 | 24921 ft | 427 kts | 120° |
| 2026-04-15 13:29 | 37.31398 | -7.81142 | 24428 ft | 426 kts | 120° |
| 2026-04-15 13:30 | 37.29995 | -7.77874 | 23953 ft | 424 kts | 120° |
| 2026-04-15 13:30 | 37.28599 | -7.74626 | 23406 ft | 422 kts | 119° |
| 2026-04-15 13:30 | 37.27212 | -7.71399 | 22887 ft | 418 kts | 119° |
| 2026-04-15 13:30 | 37.25832 | -7.68194 | 22404 ft | 415 kts | 119° |
| 2026-04-15 13:31 | 37.24467 | -7.65026 | 21917 ft | 411 kts | 119° |
| 2026-04-15 13:31 | 37.23113 | -7.61886 | 21461 ft | 407 kts | 119° |
| 2026-04-15 13:31 | 37.21785 | -7.58811 | 21004 ft | 404 kts | 118° |
| 2026-04-15 13:31 | 37.20450 | -7.55723 | 20546 ft | 400 kts | 118° |
| 2026-04-15 13:32 | 37.19128 | -7.52665 | 20087 ft | 397 kts | 118° |
| 2026-04-15 13:32 | 37.17811 | -7.49622 | 19647 ft | 394 kts | 118° |
| 2026-04-15 13:32 | 37.16506 | -7.46609 | 19203 ft | 392 kts | 117° |
| 2026-04-15 13:32 | 37.15209 | -7.43619 | 18758 ft | 389 kts | 117° |
| 2026-04-15 13:33 | 37.14011 | -7.40595 | 18281 ft | 385 kts | 108° |
| 2026-04-15 13:33 | 37.13475 | -7.37347 | 17835 ft | 378 kts | 91° |
| 2026-04-15 13:33 | 37.13608 | -7.34115 | 17584 ft | 367 kts | 77° |
| 2026-04-15 13:33 | 37.14195 | -7.31028 | 17320 ft | 361 kts | 74° |
| 2026-04-15 13:34 | 37.14817 | -7.27970 | 16869 ft | 362 kts | 74° |
| 2026-04-15 13:34 | 37.15413 | -7.24951 | 16364 ft | 361 kts | 75° |
| 2026-04-15 13:34 | 37.16000 | -7.21877 | 15865 ft | 361 kts | 75° |
| 2026-04-15 13:34 | 37.16575 | -7.18820 | 15452 ft | 359 kts | 75° |
| 2026-04-15 13:35 | 37.17149 | -7.15787 | 15066 ft | 356 kts | 75° |
| 2026-04-15 13:35 | 37.17723 | -7.12778 | 14629 ft | 354 kts | 75° |
| 2026-04-15 13:35 | 37.18295 | -7.09777 | 14197 ft | 353 kts | 75° |
| 2026-04-15 13:35 | 37.18866 | -7.06784 | 13750 ft | 352 kts | 75° |
| 2026-04-15 13:36 | 37.19431 | -7.03811 | 13331 ft | 349 kts | 75° |
| 2026-04-15 13:36 | 37.19990 | -7.00861 | 12944 ft | 345 kts | 75° |
| 2026-04-15 13:36 | 37.20543 | -6.97941 | 12553 ft | 343 kts | 75° |
| 2026-04-15 13:36 | 37.21090 | -6.95047 | 12156 ft | 340 kts | 75° |
| 2026-04-15 13:37 | 37.21632 | -6.92179 | 11852 ft | 335 kts | 75° |
| 2026-04-15 13:37 | 37.22167 | -6.89342 | 11462 ft | 333 kts | 75° |
| 2026-04-15 13:37 | 37.22699 | -6.86519 | 11066 ft | 332 kts | 75° |
| 2026-04-15 13:37 | 37.23225 | -6.83721 | 10843 ft | 324 kts | 75° |
| 2026-04-15 13:38 | 37.23727 | -6.81043 | 10700 ft | 315 kts | 75° |
| 2026-04-15 13:38 | 37.24222 | -6.78403 | 10553 ft | 306 kts | 75° |
| 2026-04-15 13:38 | 37.24703 | -6.75834 | 10433 ft | 297 kts | 75° |
| 2026-04-15 13:38 | 37.25167 | -6.73338 | 10311 ft | 289 kts | 75° |
| 2026-04-15 13:39 | 37.25616 | -6.70917 | 10184 ft | 281 kts | 75° |
| 2026-04-15 13:39 | 37.26057 | -6.68533 | 9883 ft | 280 kts | 75° |
| 2026-04-15 13:39 | 37.26497 | -6.66160 | 9609 ft | 278 kts | 75° |
| 2026-04-15 13:39 | 37.26935 | -6.63796 | 9310 ft | 277 kts | 75° |
| 2026-04-15 13:40 | 37.27368 | -6.61448 | 9031 ft | 275 kts | 75° |
| 2026-04-15 13:40 | 37.27798 | -6.59114 | 8740 ft | 274 kts | 75° |
| 2026-04-15 13:40 | 37.28221 | -6.56820 | 8468 ft | 272 kts | 75° |
| 2026-04-15 13:40 | 37.28648 | -6.54504 | 8192 ft | 271 kts | 75° |
| 2026-04-15 13:41 | 37.29071 | -6.52203 | 7921 ft | 270 kts | 75° |
| 2026-04-15 13:41 | 37.29491 | -6.49911 | 7647 ft | 269 kts | 75° |
| 2026-04-15 13:41 | 37.29911 | -6.47624 | 7369 ft | 269 kts | 76° |
| 2026-04-15 13:41 | 37.30328 | -6.45342 | 7092 ft | 268 kts | 76° |
| 2026-04-15 13:42 | 37.30747 | -6.43055 | 6808 ft | 267 kts | 76° |
| 2026-04-15 13:42 | 37.31163 | -6.40781 | 6527 ft | 266 kts | 76° |
| 2026-04-15 13:42 | 37.31581 | -6.38489 | 6064 ft | 273 kts | 76° |
| 2026-04-15 13:42 | 37.32006 | -6.36160 | 5749 ft | 274 kts | 76° |
| 2026-04-15 13:43 | 37.32432 | -6.33823 | 5433 ft | 273 kts | 76° |
| 2026-04-15 13:43 | 37.32853 | -6.31508 | 5140 ft | 271 kts | 76° |
| 2026-04-15 13:43 | 37.33272 | -6.29200 | 4856 ft | 271 kts | 77° |
| 2026-04-15 13:43 | 37.33685 | -6.26925 | 4558 ft | 270 kts | 77° |
| 2026-04-15 13:44 | 37.34100 | -6.24631 | 4294 ft | 268 kts | 77° |
| 2026-04-15 13:44 | 37.34508 | -6.22379 | 4173 ft | 260 kts | 77° |
| 2026-04-15 13:44 | 37.34903 | -6.20194 | 4056 ft | 253 kts | 77° |
| 2026-04-15 13:44 | 37.35501 | -6.18167 | 3917 ft | 245 kts | 52° |
| 2026-04-15 13:45 | 37.36676 | -6.16711 | 3879 ft | 230 kts | 38° |
| 2026-04-15 13:45 | 37.37905 | -6.15499 | 3750 ft | 219 kts | 37° |
| 2026-04-15 13:45 | 37.39094 | -6.14344 | 3527 ft | 213 kts | 37° |
| 2026-04-15 13:47 | 37.41754 | -6.03905 | 2066 ft | 172 kts | 90° |
| 2026-04-15 13:47 | 37.41756 | -6.02447 | 1841 ft | 161 kts | 90° |
| 2026-04-15 13:47 | 37.41759 | -6.01074 | 1681 ft | 155 kts | 90° |
| 2026-04-15 13:48 | 37.41762 | -5.99714 | 1455 ft | 155 kts | 90° |
| 2026-04-15 13:48 | 37.41767 | -5.98374 | 1283 ft | 151 kts | 90° |
| 2026-04-15 13:48 | 37.41767 | -5.97064 | 1061 ft | 151 kts | 90° |
| 2026-04-15 13:48 | 37.41752 | -5.95741 | 857 ft | 150 kts | 89° |
| 2026-04-15 13:49 | 37.41768 | -5.94436 | 675 ft | 148 kts | 88° |
| 2026-04-15 13:49 | 37.41771 | -5.93141 | 471 ft | 149 kts | 88° |
| 2026-04-15 13:49 | 37.41784 | -5.91831 | 246 ft | 150 kts | 88° |
| 2026-04-15 13:49 | 37.41789 | -5.90542 | 110 ft | 144 kts | 88° |
| 2026-04-15 13:50 | 37.41793 | -5.89392 | 99 ft | 115 kts | 89° |
| 2026-04-15 13:50 | 37.41796 | -5.88571 | 105 ft | 72 kts | 89° |
| 2026-04-15 13:50 | 37.41801 | -5.88108 | 106 ft | 42 kts | 90° |
| 2026-04-15 13:50 | 37.41804 | -5.87735 | 111 ft | 42 kts | 90° |
| 2026-04-15 13:51 | 37.41848 | -5.87459 | 113 ft | 29 kts | 41° |
| 2026-04-15 13:51 | 37.41984 | -5.87553 | 109 ft | 27 kts | 281° |
| 2026-04-15 13:51 | 37.41988 | -5.87780 | 107 ft | 25 kts | 269° |
| 2026-04-15 13:51 | 37.41987 | -5.87988 | 106 ft | 23 kts | 270° |
| 2026-04-15 13:52 | 37.41986 | -5.88189 | 105 ft | 23 kts | 270° |
| 2026-04-15 13:52 | 37.41986 | -5.88396 | 104 ft | 24 kts | 270° |
| 2026-04-15 13:52 | 37.41986 | -5.88598 | 103 ft | 23 kts | 270° |
| 2026-04-15 13:52 | 37.41985 | -5.88809 | 102 ft | 26 kts | 269° |
| 2026-04-15 13:53 | 37.41983 | -5.89058 | 100 ft | 31 kts | 270° |
| 2026-04-15 13:53 | 37.41981 | -5.89349 | 98 ft | 35 kts | 269° |
| 2026-04-15 13:53 | 37.41982 | -5.89674 | 96 ft | 38 kts | 270° |
| 2026-04-15 13:53 | 37.41990 | -5.89859 | 97 ft | 19 kts | 297° |
| 2026-04-15 13:54 | 37.42098 | -5.89930 | 94 ft | 15 kts | 356° |
| 2026-04-15 13:54 | 37.42169 | -5.89962 | 93 ft | 6 kts | 315° |
| 2026-04-15 13:54 | 37.42182 | -5.89979 | 93 ft | 1 kts | 315° |
| 2026-04-15 13:54 | 37.42183 | -5.89980 | 93 ft | 0 kts | 315° |